sensor_id;sensor_type;location;lat;lon;timestamp;P1;durP1;ratioP1;P2;durP2;ratioP2
249;SDS011;109;19.806;-70.704;2024-02-15T00:01:10;15.20;;;5.87;;
249;SDS011;109;19.806;-70.704;2024-02-15T00:03:37;13.20;;;6.67;;
249;SDS011;109;19.806;-70.704;2024-02-15T00:06:03;10.43;;;5.90;;
249;SDS011;109;19.806;-70.704;2024-02-15T00:08:30;16.53;;;8.13;;
249;SDS011;109;19.806;-70.704;2024-02-15T00:10:56;22.23;;;6.53;;
249;SDS011;109;19.806;-70.704;2024-02-15T00:13:22;13.70;;;7.37;;
249;SDS011;109;19.806;-70.704;2024-02-15T00:15:49;13.63;;;6.57;;
249;SDS011;109;19.806;-70.704;2024-02-15T00:18:15;10.20;;;5.43;;
249;SDS011;109;19.806;-70.704;2024-02-15T00:20:42;17.73;;;6.87;;
249;SDS011;109;19.806;-70.704;2024-02-15T00:23:09;16.60;;;5.97;;
249;SDS011;109;19.806;-70.704;2024-02-15T00:25:36;14.73;;;5.93;;
249;SDS011;109;19.806;-70.704;2024-02-15T00:28:02;16.23;;;6.47;;
249;SDS011;109;19.806;-70.704;2024-02-15T00:30:29;13.80;;;6.50;;
249;SDS011;109;19.806;-70.704;2024-02-15T00:32:57;17.67;;;7.13;;
249;SDS011;109;19.806;-70.704;2024-02-15T00:35:23;18.53;;;6.63;;
249;SDS011;109;19.806;-70.704;2024-02-15T00:37:50;11.10;;;6.40;;
249;SDS011;109;19.806;-70.704;2024-02-15T00:40:17;14.77;;;6.30;;
249;SDS011;109;19.806;-70.704;2024-02-15T00:42:43;17.07;;;7.30;;
249;SDS011;109;19.806;-70.704;2024-02-15T00:45:10;15.23;;;6.73;;
249;SDS011;109;19.806;-70.704;2024-02-15T00:47:37;19.83;;;7.00;;
249;SDS011;109;19.806;-70.704;2024-02-15T00:50:10;26.70;;;8.07;;
249;SDS011;109;19.806;-70.704;2024-02-15T00:52:36;14.63;;;7.30;;
249;SDS011;109;19.806;-70.704;2024-02-15T00:55:09;14.90;;;6.90;;
249;SDS011;109;19.806;-70.704;2024-02-15T00:57:35;15.33;;;6.87;;
249;SDS011;109;19.806;-70.704;2024-02-15T01:00:08;12.50;;;7.20;;
249;SDS011;109;19.806;-70.704;2024-02-15T01:02:35;23.20;;;7.80;;
249;SDS011;109;19.806;-70.704;2024-02-15T01:05:08;13.83;;;7.60;;
249;SDS011;109;19.806;-70.704;2024-02-15T01:07:35;12.80;;;7.50;;
249;SDS011;109;19.806;-70.704;2024-02-15T01:10:15;17.73;;;6.87;;
249;SDS011;109;19.806;-70.704;2024-02-15T01:12:41;16.63;;;7.67;;
249;SDS011;109;19.806;-70.704;2024-02-15T01:15:16;20.23;;;7.13;;
249;SDS011;109;19.806;-70.704;2024-02-15T01:17:44;12.10;;;6.70;;
249;SDS011;109;19.806;-70.704;2024-02-15T01:20:17;21.43;;;7.10;;
249;SDS011;109;19.806;-70.704;2024-02-15T01:22:43;15.20;;;7.10;;
249;SDS011;109;19.806;-70.704;2024-02-15T01:25:19;9.10;;;5.70;;
249;SDS011;109;19.806;-70.704;2024-02-15T01:27:45;12.80;;;6.40;;
249;SDS011;109;19.806;-70.704;2024-02-15T01:30:18;12.93;;;6.50;;
249;SDS011;109;19.806;-70.704;2024-02-15T01:32:45;24.00;;;6.40;;
249;SDS011;109;19.806;-70.704;2024-02-15T01:35:18;9.40;;;5.87;;
249;SDS011;109;19.806;-70.704;2024-02-15T01:37:44;25.50;;;7.70;;
249;SDS011;109;19.806;-70.704;2024-02-15T01:40:17;17.17;;;6.43;;
249;SDS011;109;19.806;-70.704;2024-02-15T01:42:44;19.77;;;6.47;;
249;SDS011;109;19.806;-70.704;2024-02-15T01:45:24;15.70;;;6.97;;
249;SDS011;109;19.806;-70.704;2024-02-15T01:47:58;15.30;;;8.73;;
249;SDS011;109;19.806;-70.704;2024-02-15T01:50:25;17.37;;;9.20;;
249;SDS011;109;19.806;-70.704;2024-02-15T01:52:58;18.13;;;10.97;;
249;SDS011;109;19.806;-70.704;2024-02-15T01:55:25;13.00;;;9.87;;
249;SDS011;109;19.806;-70.704;2024-02-15T01:57:58;17.53;;;10.63;;
249;SDS011;109;19.806;-70.704;2024-02-15T02:00:25;26.60;;;10.43;;
249;SDS011;109;19.806;-70.704;2024-02-15T02:02:58;19.47;;;9.70;;
249;SDS011;109;19.806;-70.704;2024-02-15T02:05:35;20.17;;;9.77;;
249;SDS011;109;19.806;-70.704;2024-02-15T02:08:01;18.87;;;9.00;;
249;SDS011;109;19.806;-70.704;2024-02-15T02:10:39;18.00;;;9.63;;
249;SDS011;109;19.806;-70.704;2024-02-15T02:13:13;20.63;;;9.23;;
249;SDS011;109;19.806;-70.704;2024-02-15T02:15:39;14.33;;;9.03;;
249;SDS011;109;19.806;-70.704;2024-02-15T02:18:12;15.73;;;9.30;;
249;SDS011;109;19.806;-70.704;2024-02-15T02:20:38;19.27;;;9.33;;
249;SDS011;109;19.806;-70.704;2024-02-15T02:23:15;21.27;;;9.40;;
249;SDS011;109;19.806;-70.704;2024-02-15T02:25:52;15.80;;;9.90;;
249;SDS011;109;19.806;-70.704;2024-02-15T02:28:20;17.30;;;8.17;;
249;SDS011;109;19.806;-70.704;2024-02-15T02:30:54;15.30;;;8.43;;
249;SDS011;109;19.806;-70.704;2024-02-15T02:33:22;15.83;;;8.47;;
249;SDS011;109;19.806;-70.704;2024-02-15T02:35:57;16.03;;;8.40;;
249;SDS011;109;19.806;-70.704;2024-02-15T02:38:23;14.63;;;8.50;;
249;SDS011;109;19.806;-70.704;2024-02-15T02:40:58;19.67;;;8.13;;
249;SDS011;109;19.806;-70.704;2024-02-15T02:43:24;12.90;;;7.63;;
249;SDS011;109;19.806;-70.704;2024-02-15T02:45:57;15.67;;;8.00;;
249;SDS011;109;19.806;-70.704;2024-02-15T02:48:23;18.20;;;8.40;;
249;SDS011;109;19.806;-70.704;2024-02-15T02:50:57;12.60;;;8.53;;
249;SDS011;109;19.806;-70.704;2024-02-15T02:53:23;15.93;;;8.07;;
249;SDS011;109;19.806;-70.704;2024-02-15T02:55:57;12.93;;;6.77;;
249;SDS011;109;19.806;-70.704;2024-02-15T02:58:23;12.13;;;7.47;;
249;SDS011;109;19.806;-70.704;2024-02-15T03:00:56;14.43;;;7.00;;
249;SDS011;109;19.806;-70.704;2024-02-15T03:03:26;12.63;;;7.83;;
249;SDS011;109;19.806;-70.704;2024-02-15T03:05:59;12.87;;;7.10;;
249;SDS011;109;19.806;-70.704;2024-02-15T03:08:27;12.53;;;7.60;;
249;SDS011;109;19.806;-70.704;2024-02-15T03:11:00;12.97;;;7.53;;
249;SDS011;109;19.806;-70.704;2024-02-15T03:13:26;14.20;;;8.40;;
249;SDS011;109;19.806;-70.704;2024-02-15T03:16:00;12.63;;;6.60;;
249;SDS011;109;19.806;-70.704;2024-02-15T03:18:26;15.40;;;6.90;;
249;SDS011;109;19.806;-70.704;2024-02-15T03:20:59;16.50;;;7.57;;
249;SDS011;109;19.806;-70.704;2024-02-15T03:23:25;12.67;;;6.93;;
249;SDS011;109;19.806;-70.704;2024-02-15T03:25:58;18.53;;;6.60;;
249;SDS011;109;19.806;-70.704;2024-02-15T03:28:24;11.13;;;6.10;;
249;SDS011;109;19.806;-70.704;2024-02-15T03:30:58;15.63;;;7.20;;
249;SDS011;109;19.806;-70.704;2024-02-15T03:33:26;12.10;;;6.57;;
249;SDS011;109;19.806;-70.704;2024-02-15T03:36:05;12.07;;;7.20;;
249;SDS011;109;19.806;-70.704;2024-02-15T03:38:31;10.97;;;6.47;;
249;SDS011;109;19.806;-70.704;2024-02-15T03:41:04;13.83;;;7.33;;
249;SDS011;109;19.806;-70.704;2024-02-15T03:43:31;15.30;;;6.47;;
249;SDS011;109;19.806;-70.704;2024-02-15T03:46:06;11.07;;;6.20;;
249;SDS011;109;19.806;-70.704;2024-02-15T03:48:34;17.70;;;6.70;;
249;SDS011;109;19.806;-70.704;2024-02-15T03:51:07;13.07;;;6.97;;
249;SDS011;109;19.806;-70.704;2024-02-15T03:53:35;13.70;;;6.90;;
249;SDS011;109;19.806;-70.704;2024-02-15T03:56:09;13.30;;;6.83;;
249;SDS011;109;19.806;-70.704;2024-02-15T03:58:35;12.07;;;7.40;;
249;SDS011;109;19.806;-70.704;2024-02-15T04:01:09;12.23;;;6.20;;
249;SDS011;109;19.806;-70.704;2024-02-15T04:03:35;13.90;;;8.07;;
249;SDS011;109;19.806;-70.704;2024-02-15T04:06:09;9.17;;;6.43;;
249;SDS011;109;19.806;-70.704;2024-02-15T04:08:36;11.73;;;6.70;;
249;SDS011;109;19.806;-70.704;2024-02-15T04:11:11;12.47;;;7.80;;
249;SDS011;109;19.806;-70.704;2024-02-15T04:13:37;10.20;;;6.57;;
249;SDS011;109;19.806;-70.704;2024-02-15T04:16:10;10.77;;;6.77;;
249;SDS011;109;19.806;-70.704;2024-02-15T04:18:36;10.27;;;7.07;;
249;SDS011;109;19.806;-70.704;2024-02-15T04:21:10;9.87;;;6.83;;
249;SDS011;109;19.806;-70.704;2024-02-15T04:23:36;13.80;;;7.00;;
249;SDS011;109;19.806;-70.704;2024-02-15T04:26:10;13.30;;;6.50;;
249;SDS011;109;19.806;-70.704;2024-02-15T04:28:39;11.30;;;7.63;;
249;SDS011;109;19.806;-70.704;2024-02-15T04:31:14;17.20;;;7.17;;
249;SDS011;109;19.806;-70.704;2024-02-15T04:33:40;11.37;;;7.33;;
249;SDS011;109;19.806;-70.704;2024-02-15T04:36:14;10.37;;;7.27;;
249;SDS011;109;19.806;-70.704;2024-02-15T04:38:43;13.50;;;7.23;;
249;SDS011;109;19.806;-70.704;2024-02-15T04:41:17;12.80;;;6.80;;
249;SDS011;109;19.806;-70.704;2024-02-15T04:43:55;12.43;;;6.47;;
249;SDS011;109;19.806;-70.704;2024-02-15T04:46:42;8.23;;;6.37;;
249;SDS011;109;19.806;-70.704;2024-02-15T04:49:19;9.60;;;6.67;;
249;SDS011;109;19.806;-70.704;2024-02-15T04:51:46;11.63;;;6.90;;
249;SDS011;109;19.806;-70.704;2024-02-15T04:54:22;14.37;;;7.07;;
249;SDS011;109;19.806;-70.704;2024-02-15T04:56:48;8.23;;;6.80;;
249;SDS011;109;19.806;-70.704;2024-02-15T04:59:26;11.57;;;6.87;;
249;SDS011;109;19.806;-70.704;2024-02-15T05:01:54;12.70;;;7.10;;
249;SDS011;109;19.806;-70.704;2024-02-15T05:04:30;11.87;;;7.10;;
249;SDS011;109;19.806;-70.704;2024-02-15T05:07:08;10.07;;;7.60;;
249;SDS011;109;19.806;-70.704;2024-02-15T05:09:35;14.90;;;6.73;;
249;SDS011;109;19.806;-70.704;2024-02-15T05:12:08;14.03;;;7.60;;
249;SDS011;109;19.806;-70.704;2024-02-15T05:14:34;10.37;;;7.93;;
249;SDS011;109;19.806;-70.704;2024-02-15T05:17:09;11.00;;;7.37;;
249;SDS011;109;19.806;-70.704;2024-02-15T05:19:35;12.43;;;7.07;;
249;SDS011;109;19.806;-70.704;2024-02-15T05:22:08;17.13;;;7.50;;
249;SDS011;109;19.806;-70.704;2024-02-15T05:24:34;14.37;;;7.03;;
249;SDS011;109;19.806;-70.704;2024-02-15T05:27:08;12.90;;;6.83;;
249;SDS011;109;19.806;-70.704;2024-02-15T05:29:34;13.90;;;7.90;;
249;SDS011;109;19.806;-70.704;2024-02-15T05:32:08;9.40;;;6.80;;
249;SDS011;109;19.806;-70.704;2024-02-15T05:34:35;9.20;;;7.10;;
249;SDS011;109;19.806;-70.704;2024-02-15T05:37:12;10.57;;;7.37;;
249;SDS011;109;19.806;-70.704;2024-02-15T05:39:38;17.50;;;7.33;;
249;SDS011;109;19.806;-70.704;2024-02-15T05:42:12;14.23;;;7.10;;
249;SDS011;109;19.806;-70.704;2024-02-15T05:44:38;12.67;;;7.60;;
249;SDS011;109;19.806;-70.704;2024-02-15T05:47:13;12.50;;;7.40;;
249;SDS011;109;19.806;-70.704;2024-02-15T05:49:53;11.30;;;7.00;;
249;SDS011;109;19.806;-70.704;2024-02-15T05:52:19;12.30;;;7.03;;
249;SDS011;109;19.806;-70.704;2024-02-15T05:54:52;11.60;;;6.60;;
249;SDS011;109;19.806;-70.704;2024-02-15T05:57:18;11.93;;;7.10;;
249;SDS011;109;19.806;-70.704;2024-02-15T05:59:51;17.83;;;7.00;;
249;SDS011;109;19.806;-70.704;2024-02-15T06:02:17;10.70;;;6.70;;
249;SDS011;109;19.806;-70.704;2024-02-15T06:04:50;12.40;;;6.90;;
249;SDS011;109;19.806;-70.704;2024-02-15T06:07:18;11.30;;;6.43;;
249;SDS011;109;19.806;-70.704;2024-02-15T06:09:51;9.93;;;6.50;;
249;SDS011;109;19.806;-70.704;2024-02-15T06:12:17;17.20;;;7.50;;
249;SDS011;109;19.806;-70.704;2024-02-15T06:14:50;13.20;;;7.40;;
249;SDS011;109;19.806;-70.704;2024-02-15T06:17:16;12.40;;;7.27;;
249;SDS011;109;19.806;-70.704;2024-02-15T06:19:49;13.03;;;7.50;;
249;SDS011;109;19.806;-70.704;2024-02-15T06:22:15;10.30;;;6.90;;
249;SDS011;109;19.806;-70.704;2024-02-15T06:24:48;10.27;;;7.03;;
249;SDS011;109;19.806;-70.704;2024-02-15T06:27:14;13.83;;;6.93;;
249;SDS011;109;19.806;-70.704;2024-02-15T06:29:48;12.77;;;7.10;;
249;SDS011;109;19.806;-70.704;2024-02-15T06:32:39;14.83;;;7.47;;
249;SDS011;109;19.806;-70.704;2024-02-15T06:35:30;15.97;;;8.10;;
249;SDS011;109;19.806;-70.704;2024-02-15T06:38:21;9.47;;;6.43;;
249;SDS011;109;19.806;-70.704;2024-02-15T06:41:12;12.70;;;6.90;;
249;SDS011;109;19.806;-70.704;2024-02-15T06:43:39;15.33;;;7.90;;
249;SDS011;109;19.806;-70.704;2024-02-15T06:46:18;11.87;;;7.00;;
249;SDS011;109;19.806;-70.704;2024-02-15T06:48:52;11.27;;;6.70;;
249;SDS011;109;19.806;-70.704;2024-02-15T06:51:20;11.40;;;7.20;;
249;SDS011;109;19.806;-70.704;2024-02-15T06:53:53;11.93;;;6.93;;
249;SDS011;109;19.806;-70.704;2024-02-15T06:56:21;9.93;;;7.03;;
249;SDS011;109;19.806;-70.704;2024-02-15T06:58:55;10.90;;;6.90;;
249;SDS011;109;19.806;-70.704;2024-02-15T07:01:23;10.10;;;7.17;;
249;SDS011;109;19.806;-70.704;2024-02-15T07:03:57;12.70;;;7.60;;
249;SDS011;109;19.806;-70.704;2024-02-15T07:06:23;8.47;;;6.53;;
249;SDS011;109;19.806;-70.704;2024-02-15T07:08:56;7.33;;;5.70;;
249;SDS011;109;19.806;-70.704;2024-02-15T07:11:22;14.50;;;6.83;;
249;SDS011;109;19.806;-70.704;2024-02-15T07:13:56;8.17;;;6.87;;
249;SDS011;109;19.806;-70.704;2024-02-15T07:16:22;14.73;;;6.90;;
249;SDS011;109;19.806;-70.704;2024-02-15T07:18:55;11.43;;;7.20;;
249;SDS011;109;19.806;-70.704;2024-02-15T07:21:22;17.70;;;6.57;;
249;SDS011;109;19.806;-70.704;2024-02-15T07:24:01;14.20;;;7.17;;
249;SDS011;109;19.806;-70.704;2024-02-15T07:26:27;12.00;;;7.40;;
249;SDS011;109;19.806;-70.704;2024-02-15T07:29:00;11.97;;;7.63;;
249;SDS011;109;19.806;-70.704;2024-02-15T07:31:30;14.63;;;7.27;;
249;SDS011;109;19.806;-70.704;2024-02-15T07:34:03;13.83;;;7.70;;
249;SDS011;109;19.806;-70.704;2024-02-15T07:36:30;12.90;;;7.20;;
249;SDS011;109;19.806;-70.704;2024-02-15T07:39:04;13.23;;;7.60;;
249;SDS011;109;19.806;-70.704;2024-02-15T07:41:30;12.40;;;6.90;;
249;SDS011;109;19.806;-70.704;2024-02-15T07:44:05;11.50;;;7.30;;
249;SDS011;109;19.806;-70.704;2024-02-15T07:46:52;11.90;;;6.90;;
249;SDS011;109;19.806;-70.704;2024-02-15T07:49:25;20.87;;;7.83;;
249;SDS011;109;19.806;-70.704;2024-02-15T07:51:51;15.30;;;7.33;;
249;SDS011;109;19.806;-70.704;2024-02-15T07:54:28;18.40;;;8.23;;
249;SDS011;109;19.806;-70.704;2024-02-15T07:56:55;27.47;;;9.87;;
249;SDS011;109;19.806;-70.704;2024-02-15T07:59:28;22.27;;;9.00;;
249;SDS011;109;19.806;-70.704;2024-02-15T08:01:54;14.77;;;7.60;;
249;SDS011;109;19.806;-70.704;2024-02-15T08:04:27;16.27;;;8.17;;
249;SDS011;109;19.806;-70.704;2024-02-15T08:06:54;19.00;;;7.70;;
249;SDS011;109;19.806;-70.704;2024-02-15T08:09:27;15.73;;;7.90;;
249;SDS011;109;19.806;-70.704;2024-02-15T08:11:53;10.60;;;7.87;;
249;SDS011;109;19.806;-70.704;2024-02-15T08:14:28;10.90;;;7.87;;
249;SDS011;109;19.806;-70.704;2024-02-15T08:16:55;11.50;;;7.80;;
249;SDS011;109;19.806;-70.704;2024-02-15T08:19:28;14.93;;;7.30;;
249;SDS011;109;19.806;-70.704;2024-02-15T08:21:54;9.93;;;7.10;;
249;SDS011;109;19.806;-70.704;2024-02-15T08:24:28;13.80;;;7.30;;
249;SDS011;109;19.806;-70.704;2024-02-15T08:26:55;10.80;;;7.80;;
249;SDS011;109;19.806;-70.704;2024-02-15T08:29:30;14.73;;;8.20;;
249;SDS011;109;19.806;-70.704;2024-02-15T08:31:56;13.63;;;7.40;;
249;SDS011;109;19.806;-70.704;2024-02-15T08:34:30;13.53;;;7.33;;
249;SDS011;109;19.806;-70.704;2024-02-15T08:36:56;12.70;;;7.80;;
249;SDS011;109;19.806;-70.704;2024-02-15T08:39:30;16.43;;;8.20;;
249;SDS011;109;19.806;-70.704;2024-02-15T08:41:56;14.97;;;8.90;;
249;SDS011;109;19.806;-70.704;2024-02-15T08:44:31;11.60;;;7.10;;
249;SDS011;109;19.806;-70.704;2024-02-15T08:47:11;13.10;;;7.50;;
249;SDS011;109;19.806;-70.704;2024-02-15T08:49:37;17.37;;;8.50;;
249;SDS011;109;19.806;-70.704;2024-02-15T08:52:12;14.50;;;8.67;;
249;SDS011;109;19.806;-70.704;2024-02-15T08:54:38;12.93;;;8.50;;
249;SDS011;109;19.806;-70.704;2024-02-15T08:57:11;14.00;;;8.30;;
249;SDS011;109;19.806;-70.704;2024-02-15T08:59:38;18.43;;;7.27;;
249;SDS011;109;19.806;-70.704;2024-02-15T09:02:12;18.53;;;7.70;;
249;SDS011;109;19.806;-70.704;2024-02-15T09:04:39;11.10;;;6.40;;
249;SDS011;109;19.806;-70.704;2024-02-15T09:07:13;15.47;;;7.40;;
249;SDS011;109;19.806;-70.704;2024-02-15T09:09:39;7.30;;;6.20;;
249;SDS011;109;19.806;-70.704;2024-02-15T09:12:13;12.10;;;7.10;;
249;SDS011;109;19.806;-70.704;2024-02-15T09:14:39;8.37;;;6.47;;
249;SDS011;109;19.806;-70.704;2024-02-15T09:17:12;9.00;;;6.50;;
249;SDS011;109;19.806;-70.704;2024-02-15T09:19:39;9.50;;;6.67;;
249;SDS011;109;19.806;-70.704;2024-02-15T09:22:13;8.87;;;6.83;;
249;SDS011;109;19.806;-70.704;2024-02-15T09:24:39;7.50;;;6.00;;
249;SDS011;109;19.806;-70.704;2024-02-15T09:27:14;14.20;;;6.80;;
249;SDS011;109;19.806;-70.704;2024-02-15T09:29:40;9.40;;;6.57;;
249;SDS011;109;19.806;-70.704;2024-02-15T09:32:14;11.07;;;6.47;;
249;SDS011;109;19.806;-70.704;2024-02-15T09:34:40;9.80;;;6.30;;
249;SDS011;109;19.806;-70.704;2024-02-15T09:37:14;8.70;;;6.80;;
249;SDS011;109;19.806;-70.704;2024-02-15T09:39:41;8.67;;;6.83;;
249;SDS011;109;19.806;-70.704;2024-02-15T09:42:14;9.00;;;6.80;;
249;SDS011;109;19.806;-70.704;2024-02-15T09:44:40;10.73;;;6.90;;
249;SDS011;109;19.806;-70.704;2024-02-15T09:47:16;8.73;;;6.57;;
249;SDS011;109;19.806;-70.704;2024-02-15T09:49:44;11.80;;;6.70;;
249;SDS011;109;19.806;-70.704;2024-02-15T09:52:18;12.17;;;6.63;;
249;SDS011;109;19.806;-70.704;2024-02-15T09:54:44;10.73;;;7.00;;
249;SDS011;109;19.806;-70.704;2024-02-15T09:57:18;9.60;;;6.30;;
249;SDS011;109;19.806;-70.704;2024-02-15T09:59:46;11.87;;;5.93;;
249;SDS011;109;19.806;-70.704;2024-02-15T10:02:19;9.83;;;6.67;;
249;SDS011;109;19.806;-70.704;2024-02-15T10:04:46;9.37;;;6.60;;
249;SDS011;109;19.806;-70.704;2024-02-15T10:07:20;7.60;;;6.10;;
249;SDS011;109;19.806;-70.704;2024-02-15T10:09:46;10.03;;;6.53;;
249;SDS011;109;19.806;-70.704;2024-02-15T10:12:19;8.47;;;6.47;;
249;SDS011;109;19.806;-70.704;2024-02-15T10:14:48;12.90;;;6.63;;
249;SDS011;109;19.806;-70.704;2024-02-15T10:17:22;15.83;;;7.07;;
249;SDS011;109;19.806;-70.704;2024-02-15T10:20:02;11.60;;;6.27;;
249;SDS011;109;19.806;-70.704;2024-02-15T10:22:37;12.23;;;6.40;;
249;SDS011;109;19.806;-70.704;2024-02-15T10:25:13;13.50;;;7.33;;
249;SDS011;109;19.806;-70.704;2024-02-15T10:27:47;8.27;;;6.70;;
249;SDS011;109;19.806;-70.704;2024-02-15T10:30:14;10.70;;;7.80;;
249;SDS011;109;19.806;-70.704;2024-02-15T10:32:51;9.90;;;7.50;;
249;SDS011;109;19.806;-70.704;2024-02-15T10:35:20;11.73;;;7.50;;
249;SDS011;109;19.806;-70.704;2024-02-15T10:38:04;15.90;;;7.30;;
249;SDS011;109;19.806;-70.704;2024-02-15T10:40:41;12.83;;;7.13;;
249;SDS011;109;19.806;-70.704;2024-02-15T10:43:08;13.03;;;7.27;;
249;SDS011;109;19.806;-70.704;2024-02-15T10:45:53;12.07;;;7.60;;
249;SDS011;109;19.806;-70.704;2024-02-15T10:48:35;11.83;;;6.90;;
249;SDS011;109;19.806;-70.704;2024-02-15T10:51:03;11.17;;;7.60;;
249;SDS011;109;19.806;-70.704;2024-02-15T10:53:44;9.57;;;6.90;;
249;SDS011;109;19.806;-70.704;2024-02-15T10:56:18;9.03;;;7.03;;
249;SDS011;109;19.806;-70.704;2024-02-15T11:01:42;16.57;;;7.67;;
249;SDS011;109;19.806;-70.704;2024-02-15T11:04:11;11.87;;;8.00;;
249;SDS011;109;19.806;-70.704;2024-02-15T11:06:42;17.33;;;8.70;;
249;SDS011;109;19.806;-70.704;2024-02-15T11:09:10;8.93;;;8.03;;
249;SDS011;109;19.806;-70.704;2024-02-15T11:11:37;17.30;;;7.97;;
249;SDS011;109;19.806;-70.704;2024-02-15T11:16:55;15.30;;;8.10;;
249;SDS011;109;19.806;-70.704;2024-02-15T11:22:01;10.23;;;8.10;;
249;SDS011;109;19.806;-70.704;2024-02-15T11:24:36;12.23;;;7.70;;
249;SDS011;109;19.806;-70.704;2024-02-15T11:27:03;9.80;;;7.10;;
249;SDS011;109;19.806;-70.704;2024-02-15T11:32:35;12.00;;;7.67;;
249;SDS011;109;19.806;-70.704;2024-02-15T11:43:07;16.83;;;7.27;;
249;SDS011;109;19.806;-70.704;2024-02-15T11:45:34;10.90;;;7.70;;
249;SDS011;109;19.806;-70.704;2024-02-15T11:48:09;14.23;;;8.50;;
249;SDS011;109;19.806;-70.704;2024-02-15T11:50:38;17.00;;;8.20;;
249;SDS011;109;19.806;-70.704;2024-02-15T11:53:08;18.13;;;8.30;;
249;SDS011;109;19.806;-70.704;2024-02-15T11:55:38;13.37;;;8.17;;
249;SDS011;109;19.806;-70.704;2024-02-15T11:58:05;15.87;;;7.67;;
249;SDS011;109;19.806;-70.704;2024-02-15T12:00:33;20.20;;;7.90;;
249;SDS011;109;19.806;-70.704;2024-02-15T12:03:19;18.40;;;8.03;;
249;SDS011;109;19.806;-70.704;2024-02-15T12:06:04;18.23;;;7.23;;
249;SDS011;109;19.806;-70.704;2024-02-15T12:08:49;12.37;;;8.03;;
249;SDS011;109;19.806;-70.704;2024-02-15T12:11:59;12.80;;;7.30;;
249;SDS011;109;19.806;-70.704;2024-02-15T12:14:44;11.17;;;7.47;;
249;SDS011;109;19.806;-70.704;2024-02-15T12:17:28;15.03;;;8.17;;
249;SDS011;109;19.806;-70.704;2024-02-15T12:20:13;13.00;;;7.80;;
249;SDS011;109;19.806;-70.704;2024-02-15T12:22:40;12.13;;;8.50;;
249;SDS011;109;19.806;-70.704;2024-02-15T12:25:16;10.43;;;7.70;;
249;SDS011;109;19.806;-70.704;2024-02-15T12:27:46;11.57;;;7.57;;
249;SDS011;109;19.806;-70.704;2024-02-15T12:30:19;12.00;;;8.03;;
249;SDS011;109;19.806;-70.704;2024-02-15T12:32:47;15.77;;;8.10;;
249;SDS011;109;19.806;-70.704;2024-02-15T12:35:20;18.37;;;8.33;;
249;SDS011;109;19.806;-70.704;2024-02-15T12:38:12;14.57;;;7.70;;
249;SDS011;109;19.806;-70.704;2024-02-15T12:40:42;16.90;;;7.80;;
249;SDS011;109;19.806;-70.704;2024-02-15T12:43:11;20.23;;;8.47;;
249;SDS011;109;19.806;-70.704;2024-02-15T12:45:38;12.40;;;7.60;;
249;SDS011;109;19.806;-70.704;2024-02-15T12:48:09;18.17;;;7.10;;
249;SDS011;109;19.806;-70.704;2024-02-15T12:50:36;11.37;;;7.10;;
249;SDS011;109;19.806;-70.704;2024-02-15T12:53:03;8.83;;;6.83;;
249;SDS011;109;19.806;-70.704;2024-02-15T12:55:32;11.20;;;6.97;;
249;SDS011;109;19.806;-70.704;2024-02-15T12:58:03;10.00;;;7.00;;
249;SDS011;109;19.806;-70.704;2024-02-15T13:00:34;13.70;;;6.20;;
249;SDS011;109;19.806;-70.704;2024-02-15T13:03:04;6.67;;;5.77;;
249;SDS011;109;19.806;-70.704;2024-02-15T13:05:35;16.80;;;7.03;;
249;SDS011;109;19.806;-70.704;2024-02-15T13:08:03;11.80;;;6.47;;
249;SDS011;109;19.806;-70.704;2024-02-15T13:10:38;11.50;;;5.20;;
249;SDS011;109;19.806;-70.704;2024-02-15T13:13:05;12.53;;;5.33;;
249;SDS011;109;19.806;-70.704;2024-02-15T13:15:32;12.20;;;5.50;;
249;SDS011;109;19.806;-70.704;2024-02-15T13:17:58;6.30;;;4.67;;
249;SDS011;109;19.806;-70.704;2024-02-15T13:20:26;11.50;;;5.60;;
249;SDS011;109;19.806;-70.704;2024-02-15T13:22:58;9.73;;;4.93;;
249;SDS011;109;19.806;-70.704;2024-02-15T13:25:37;9.13;;;5.20;;
249;SDS011;109;19.806;-70.704;2024-02-15T13:28:05;12.33;;;5.90;;
249;SDS011;109;19.806;-70.704;2024-02-15T13:30:34;14.87;;;5.23;;
249;SDS011;109;19.806;-70.704;2024-02-15T13:33:01;7.53;;;5.40;;
249;SDS011;109;19.806;-70.704;2024-02-15T13:35:28;11.50;;;5.83;;
249;SDS011;109;19.806;-70.704;2024-02-15T13:37:55;10.90;;;4.53;;
249;SDS011;109;19.806;-70.704;2024-02-15T13:40:27;6.77;;;4.60;;
249;SDS011;109;19.806;-70.704;2024-02-15T13:42:56;11.13;;;4.83;;
249;SDS011;109;19.806;-70.704;2024-02-15T13:48:19;14.93;;;6.70;;
249;SDS011;109;19.806;-70.704;2024-02-15T13:50:46;8.50;;;4.87;;
249;SDS011;109;19.806;-70.704;2024-02-15T13:53:13;15.37;;;5.23;;
249;SDS011;109;19.806;-70.704;2024-02-15T13:55:39;13.30;;;5.97;;
249;SDS011;109;19.806;-70.704;2024-02-15T13:58:06;15.33;;;5.73;;
249;SDS011;109;19.806;-70.704;2024-02-15T14:00:33;17.83;;;5.70;;
249;SDS011;109;19.806;-70.704;2024-02-15T14:03:01;7.43;;;4.73;;
249;SDS011;109;19.806;-70.704;2024-02-15T14:05:28;16.53;;;5.83;;
249;SDS011;109;19.806;-70.704;2024-02-15T14:07:56;10.97;;;4.97;;
249;SDS011;109;19.806;-70.704;2024-02-15T14:10:30;8.20;;;4.97;;
249;SDS011;109;19.806;-70.704;2024-02-15T14:13:03;14.07;;;5.97;;
249;SDS011;109;19.806;-70.704;2024-02-15T14:15:37;10.50;;;5.60;;
249;SDS011;109;19.806;-70.704;2024-02-15T14:18:07;13.83;;;5.57;;
249;SDS011;109;19.806;-70.704;2024-02-15T14:20:44;15.13;;;5.87;;
249;SDS011;109;19.806;-70.704;2024-02-15T14:23:12;10.37;;;6.53;;
249;SDS011;109;19.806;-70.704;2024-02-15T14:25:39;7.90;;;5.13;;
249;SDS011;109;19.806;-70.704;2024-02-15T14:28:05;7.87;;;4.80;;
249;SDS011;109;19.806;-70.704;2024-02-15T14:30:35;15.80;;;6.57;;
249;SDS011;109;19.806;-70.704;2024-02-15T14:33:20;17.30;;;6.07;;
249;SDS011;109;19.806;-70.704;2024-02-15T14:35:48;13.57;;;5.97;;
249;SDS011;109;19.806;-70.704;2024-02-15T14:38:15;11.30;;;4.50;;
249;SDS011;109;19.806;-70.704;2024-02-15T14:40:45;9.20;;;4.50;;
249;SDS011;109;19.806;-70.704;2024-02-15T14:43:16;9.20;;;4.90;;
249;SDS011;109;19.806;-70.704;2024-02-15T14:45:44;12.20;;;4.47;;
249;SDS011;109;19.806;-70.704;2024-02-15T14:48:11;11.53;;;4.43;;
249;SDS011;109;19.806;-70.704;2024-02-15T14:50:41;10.17;;;4.33;;
249;SDS011;109;19.806;-70.704;2024-02-15T14:53:08;10.20;;;4.10;;
249;SDS011;109;19.806;-70.704;2024-02-15T14:55:35;6.33;;;3.90;;
249;SDS011;109;19.806;-70.704;2024-02-15T14:58:07;8.47;;;4.83;;
249;SDS011;109;19.806;-70.704;2024-02-15T15:00:34;10.90;;;4.27;;
249;SDS011;109;19.806;-70.704;2024-02-15T15:03:03;5.90;;;3.77;;
249;SDS011;109;19.806;-70.704;2024-02-15T15:05:30;14.13;;;4.23;;
249;SDS011;109;19.806;-70.704;2024-02-15T15:08:15;6.97;;;3.90;;
249;SDS011;109;19.806;-70.704;2024-02-15T15:11:00;9.50;;;3.87;;
249;SDS011;109;19.806;-70.704;2024-02-15T15:13:45;10.63;;;4.03;;
249;SDS011;109;19.806;-70.704;2024-02-15T15:16:11;6.03;;;3.77;;
249;SDS011;109;19.806;-70.704;2024-02-15T15:18:40;9.23;;;3.73;;
249;SDS011;109;19.806;-70.704;2024-02-15T15:21:07;5.80;;;3.83;;
249;SDS011;109;19.806;-70.704;2024-02-15T15:23:33;10.03;;;4.47;;
249;SDS011;109;19.806;-70.704;2024-02-15T15:26:00;9.67;;;3.93;;
249;SDS011;109;19.806;-70.704;2024-02-15T15:28:27;9.30;;;4.20;;
249;SDS011;109;19.806;-70.704;2024-02-15T15:30:54;15.67;;;4.40;;
249;SDS011;109;19.806;-70.704;2024-02-15T15:33:22;6.23;;;4.00;;
249;SDS011;109;19.806;-70.704;2024-02-15T15:35:49;8.37;;;3.70;;
249;SDS011;109;19.806;-70.704;2024-02-15T15:38:15;13.13;;;4.00;;
249;SDS011;109;19.806;-70.704;2024-02-15T15:40:42;9.27;;;3.50;;
249;SDS011;109;19.806;-70.704;2024-02-15T15:43:09;9.63;;;4.33;;
249;SDS011;109;19.806;-70.704;2024-02-15T15:45:38;13.00;;;3.60;;
249;SDS011;109;19.806;-70.704;2024-02-15T15:48:05;15.40;;;3.93;;